sensor_id;sensor_type;location;lat;lon;timestamp;P1;durP1;ratioP1;P2;durP2;ratioP2
16954;SDS011;8594;52.052;8.354;2023-05-16T00:01:56;12.40;;;7.90;;
16954;SDS011;8594;52.052;8.354;2023-05-16T00:04:24;14.90;;;7.37;;
16954;SDS011;8594;52.052;8.354;2023-05-16T00:06:51;15.20;;;7.80;;
16954;SDS011;8594;52.052;8.354;2023-05-16T00:09:18;10.37;;;6.63;;
16954;SDS011;8594;52.052;8.354;2023-05-16T00:11:45;12.57;;;6.53;;
16954;SDS011;8594;52.052;8.354;2023-05-16T00:14:14;11.13;;;7.10;;
16954;SDS011;8594;52.052;8.354;2023-05-16T00:16:41;10.13;;;6.47;;
16954;SDS011;8594;52.052;8.354;2023-05-16T00:19:08;9.77;;;6.37;;
16954;SDS011;8594;52.052;8.354;2023-05-16T00:21:36;10.53;;;6.53;;
16954;SDS011;8594;52.052;8.354;2023-05-16T00:24:03;9.60;;;6.10;;
16954;SDS011;8594;52.052;8.354;2023-05-16T00:26:30;10.70;;;5.67;;
16954;SDS011;8594;52.052;8.354;2023-05-16T00:28:57;9.83;;;5.13;;
16954;SDS011;8594;52.052;8.354;2023-05-16T00:31:24;8.50;;;5.40;;
16954;SDS011;8594;52.052;8.354;2023-05-16T00:33:51;10.73;;;5.60;;
16954;SDS011;8594;52.052;8.354;2023-05-16T00:36:18;11.90;;;5.87;;
16954;SDS011;8594;52.052;8.354;2023-05-16T00:38:46;8.70;;;5.40;;
16954;SDS011;8594;52.052;8.354;2023-05-16T00:41:13;7.50;;;4.57;;
16954;SDS011;8594;52.052;8.354;2023-05-16T00:43:41;7.17;;;4.80;;
16954;SDS011;8594;52.052;8.354;2023-05-16T00:46:09;8.00;;;4.77;;
16954;SDS011;8594;52.052;8.354;2023-05-16T00:48:35;7.13;;;4.47;;
16954;SDS011;8594;52.052;8.354;2023-05-16T00:51:02;8.47;;;4.80;;
16954;SDS011;8594;52.052;8.354;2023-05-16T00:53:33;7.13;;;4.57;;
16954;SDS011;8594;52.052;8.354;2023-05-16T00:56:02;7.93;;;4.77;;
16954;SDS011;8594;52.052;8.354;2023-05-16T00:58:30;6.73;;;4.20;;
16954;SDS011;8594;52.052;8.354;2023-05-16T01:00:58;6.23;;;4.07;;
16954;SDS011;8594;52.052;8.354;2023-05-16T01:03:26;6.67;;;4.10;;
16954;SDS011;8594;52.052;8.354;2023-05-16T01:05:53;6.83;;;3.97;;
16954;SDS011;8594;52.052;8.354;2023-05-16T01:08:20;6.47;;;3.90;;
16954;SDS011;8594;52.052;8.354;2023-05-16T01:10:49;6.73;;;3.50;;
16954;SDS011;8594;52.052;8.354;2023-05-16T01:13:31;7.13;;;3.63;;
16954;SDS011;8594;52.052;8.354;2023-05-16T01:16:09;5.87;;;3.63;;
16954;SDS011;8594;52.052;8.354;2023-05-16T01:18:50;5.13;;;3.83;;
16954;SDS011;8594;52.052;8.354;2023-05-16T01:21:27;5.80;;;3.10;;
16954;SDS011;8594;52.052;8.354;2023-05-16T01:24:08;5.43;;;3.47;;
16954;SDS011;8594;52.052;8.354;2023-05-16T01:26:48;11.80;;;3.93;;
16954;SDS011;8594;52.052;8.354;2023-05-16T01:29:17;6.77;;;3.87;;
16954;SDS011;8594;52.052;8.354;2023-05-16T01:31:44;4.67;;;3.60;;
16954;SDS011;8594;52.052;8.354;2023-05-16T01:34:11;5.20;;;3.50;;
16954;SDS011;8594;52.052;8.354;2023-05-16T01:36:39;5.83;;;3.63;;
16954;SDS011;8594;52.052;8.354;2023-05-16T01:39:18;4.67;;;3.80;;
16954;SDS011;8594;52.052;8.354;2023-05-16T01:41:58;5.27;;;3.53;;
16954;SDS011;8594;52.052;8.354;2023-05-16T01:44:30;9.87;;;3.20;;
16954;SDS011;8594;52.052;8.354;2023-05-16T01:47:03;5.27;;;2.10;;
16954;SDS011;8594;52.052;8.354;2023-05-16T01:49:38;5.83;;;2.73;;
16954;SDS011;8594;52.052;8.354;2023-05-16T01:52:12;4.37;;;2.03;;
16954;SDS011;8594;52.052;8.354;2023-05-16T01:54:46;7.93;;;2.50;;
16954;SDS011;8594;52.052;8.354;2023-05-16T01:57:19;4.73;;;2.40;;
16954;SDS011;8594;52.052;8.354;2023-05-16T01:59:52;6.23;;;2.37;;
16954;SDS011;8594;52.052;8.354;2023-05-16T02:02:18;4.43;;;2.40;;
16954;SDS011;8594;52.052;8.354;2023-05-16T02:04:45;6.67;;;2.83;;
16954;SDS011;8594;52.052;8.354;2023-05-16T02:07:12;4.60;;;2.27;;
16954;SDS011;8594;52.052;8.354;2023-05-16T02:09:39;11.33;;;2.90;;
16954;SDS011;8594;52.052;8.354;2023-05-16T02:12:06;7.40;;;2.67;;
16954;SDS011;8594;52.052;8.354;2023-05-16T02:14:35;13.90;;;2.70;;
16954;SDS011;8594;52.052;8.354;2023-05-16T02:17:02;8.10;;;2.73;;
16954;SDS011;8594;52.052;8.354;2023-05-16T02:19:28;7.40;;;2.87;;
16954;SDS011;8594;52.052;8.354;2023-05-16T02:21:55;6.73;;;2.30;;
16954;SDS011;8594;52.052;8.354;2023-05-16T02:24:22;11.27;;;2.60;;
16954;SDS011;8594;52.052;8.354;2023-05-16T02:26:49;8.73;;;2.90;;
16954;SDS011;8594;52.052;8.354;2023-05-16T02:29:15;8.37;;;2.70;;
16954;SDS011;8594;52.052;8.354;2023-05-16T02:31:43;6.87;;;2.40;;
16954;SDS011;8594;52.052;8.354;2023-05-16T02:34:11;6.80;;;2.80;;
16954;SDS011;8594;52.052;8.354;2023-05-16T02:36:37;8.43;;;3.00;;
16954;SDS011;8594;52.052;8.354;2023-05-16T02:39:04;4.93;;;2.20;;
16954;SDS011;8594;52.052;8.354;2023-05-16T02:41:33;9.07;;;2.60;;
16954;SDS011;8594;52.052;8.354;2023-05-16T02:44:00;8.00;;;2.50;;
16954;SDS011;8594;52.052;8.354;2023-05-16T02:46:27;9.43;;;2.43;;
16954;SDS011;8594;52.052;8.354;2023-05-16T02:48:57;5.47;;;2.27;;
16954;SDS011;8594;52.052;8.354;2023-05-16T02:51:26;5.27;;;2.40;;
16954;SDS011;8594;52.052;8.354;2023-05-16T02:53:53;7.33;;;2.73;;
16954;SDS011;8594;52.052;8.354;2023-05-16T02:56:23;9.23;;;2.50;;
16954;SDS011;8594;52.052;8.354;2023-05-16T02:58:50;11.07;;;2.33;;
16954;SDS011;8594;52.052;8.354;2023-05-16T03:01:19;11.67;;;2.53;;
16954;SDS011;8594;52.052;8.354;2023-05-16T03:03:46;8.23;;;2.53;;
16954;SDS011;8594;52.052;8.354;2023-05-16T03:06:14;13.13;;;2.77;;
16954;SDS011;8594;52.052;8.354;2023-05-16T03:08:41;7.90;;;2.47;;
16954;SDS011;8594;52.052;8.354;2023-05-16T03:11:07;6.10;;;2.53;;
16954;SDS011;8594;52.052;8.354;2023-05-16T03:13:34;7.90;;;2.87;;
16954;SDS011;8594;52.052;8.354;2023-05-16T03:16:01;12.60;;;2.73;;
16954;SDS011;8594;52.052;8.354;2023-05-16T03:18:28;12.70;;;2.77;;
16954;SDS011;8594;52.052;8.354;2023-05-16T03:20:54;9.97;;;2.60;;
16954;SDS011;8594;52.052;8.354;2023-05-16T03:23:23;10.80;;;2.50;;
16954;SDS011;8594;52.052;8.354;2023-05-16T03:25:51;16.53;;;2.83;;
16954;SDS011;8594;52.052;8.354;2023-05-16T03:28:18;12.73;;;3.20;;
16954;SDS011;8594;52.052;8.354;2023-05-16T03:30:44;16.40;;;3.20;;
16954;SDS011;8594;52.052;8.354;2023-05-16T03:33:11;13.30;;;2.83;;
16954;SDS011;8594;52.052;8.354;2023-05-16T03:35:38;8.87;;;2.30;;
16954;SDS011;8594;52.052;8.354;2023-05-16T03:38:05;15.80;;;3.00;;
16954;SDS011;8594;52.052;8.354;2023-05-16T03:40:33;14.70;;;3.10;;
16954;SDS011;8594;52.052;8.354;2023-05-16T03:43:00;10.90;;;2.90;;
16954;SDS011;8594;52.052;8.354;2023-05-16T03:45:28;10.47;;;2.63;;
16954;SDS011;8594;52.052;8.354;2023-05-16T03:47:55;13.27;;;2.80;;
16954;SDS011;8594;52.052;8.354;2023-05-16T03:50:22;17.20;;;3.27;;
16954;SDS011;8594;52.052;8.354;2023-05-16T03:52:49;9.97;;;2.53;;
16954;SDS011;8594;52.052;8.354;2023-05-16T03:55:17;12.60;;;2.70;;
16954;SDS011;8594;52.052;8.354;2023-05-16T03:57:46;13.97;;;3.00;;
16954;SDS011;8594;52.052;8.354;2023-05-16T04:00:14;13.10;;;3.17;;
16954;SDS011;8594;52.052;8.354;2023-05-16T04:02:41;14.70;;;2.60;;
16954;SDS011;8594;52.052;8.354;2023-05-16T04:05:09;16.17;;;3.37;;
16954;SDS011;8594;52.052;8.354;2023-05-16T04:07:37;16.23;;;2.73;;
16954;SDS011;8594;52.052;8.354;2023-05-16T04:10:05;16.53;;;3.57;;
16954;SDS011;8594;52.052;8.354;2023-05-16T04:12:32;19.00;;;2.87;;
16954;SDS011;8594;52.052;8.354;2023-05-16T04:15:01;20.07;;;3.73;;
16954;SDS011;8594;52.052;8.354;2023-05-16T04:17:27;15.70;;;2.80;;
16954;SDS011;8594;52.052;8.354;2023-05-16T04:19:54;16.83;;;2.47;;
16954;SDS011;8594;52.052;8.354;2023-05-16T04:22:21;13.57;;;2.60;;
16954;SDS011;8594;52.052;8.354;2023-05-16T04:24:48;12.47;;;3.07;;
16954;SDS011;8594;52.052;8.354;2023-05-16T04:27:15;17.43;;;2.80;;
16954;SDS011;8594;52.052;8.354;2023-05-16T04:29:42;23.73;;;3.17;;
16954;SDS011;8594;52.052;8.354;2023-05-16T04:32:11;20.70;;;3.40;;
16954;SDS011;8594;52.052;8.354;2023-05-16T04:34:37;13.53;;;2.63;;
16954;SDS011;8594;52.052;8.354;2023-05-16T04:37:05;18.07;;;2.90;;
16954;SDS011;8594;52.052;8.354;2023-05-16T04:39:32;15.87;;;2.70;;
16954;SDS011;8594;52.052;8.354;2023-05-16T04:41:59;13.97;;;2.60;;
16954;SDS011;8594;52.052;8.354;2023-05-16T04:44:27;20.80;;;3.03;;
16954;SDS011;8594;52.052;8.354;2023-05-16T04:46:54;13.07;;;2.57;;
16954;SDS011;8594;52.052;8.354;2023-05-16T04:49:22;22.40;;;3.33;;
16954;SDS011;8594;52.052;8.354;2023-05-16T04:51:49;20.40;;;2.87;;
16954;SDS011;8594;52.052;8.354;2023-05-16T04:54:15;14.30;;;2.87;;
16954;SDS011;8594;52.052;8.354;2023-05-16T04:56:42;17.73;;;3.07;;
16954;SDS011;8594;52.052;8.354;2023-05-16T04:59:09;15.90;;;3.10;;
16954;SDS011;8594;52.052;8.354;2023-05-16T05:01:36;17.47;;;3.30;;
16954;SDS011;8594;52.052;8.354;2023-05-16T05:04:03;15.13;;;3.43;;
16954;SDS011;8594;52.052;8.354;2023-05-16T05:06:31;15.63;;;2.67;;
16954;SDS011;8594;52.052;8.354;2023-05-16T05:08:58;12.77;;;2.43;;
16954;SDS011;8594;52.052;8.354;2023-05-16T05:11:25;12.60;;;2.90;;
16954;SDS011;8594;52.052;8.354;2023-05-16T05:13:52;20.33;;;2.97;;
16954;SDS011;8594;52.052;8.354;2023-05-16T05:16:18;21.20;;;2.90;;
16954;SDS011;8594;52.052;8.354;2023-05-16T05:18:46;15.77;;;3.10;;
16954;SDS011;8594;52.052;8.354;2023-05-16T05:21:12;11.57;;;2.90;;
16954;SDS011;8594;52.052;8.354;2023-05-16T05:23:41;14.63;;;2.60;;
16954;SDS011;8594;52.052;8.354;2023-05-16T05:26:07;17.00;;;2.77;;
16954;SDS011;8594;52.052;8.354;2023-05-16T05:28:34;11.33;;;2.70;;
16954;SDS011;8594;52.052;8.354;2023-05-16T05:31:02;16.83;;;2.73;;
16954;SDS011;8594;52.052;8.354;2023-05-16T05:33:30;18.30;;;3.17;;
16954;SDS011;8594;52.052;8.354;2023-05-16T05:35:57;15.07;;;2.70;;
16954;SDS011;8594;52.052;8.354;2023-05-16T05:38:23;12.23;;;2.60;;
16954;SDS011;8594;52.052;8.354;2023-05-16T05:40:52;14.07;;;2.37;;
16954;SDS011;8594;52.052;8.354;2023-05-16T05:43:18;8.97;;;2.70;;
16954;SDS011;8594;52.052;8.354;2023-05-16T05:45:45;20.27;;;2.87;;
16954;SDS011;8594;52.052;8.354;2023-05-16T05:48:12;9.07;;;2.37;;
16954;SDS011;8594;52.052;8.354;2023-05-16T05:50:39;14.07;;;2.50;;
16954;SDS011;8594;52.052;8.354;2023-05-16T05:53:06;13.00;;;2.37;;
16954;SDS011;8594;52.052;8.354;2023-05-16T05:55:33;11.50;;;2.10;;
16954;SDS011;8594;52.052;8.354;2023-05-16T05:58:01;11.40;;;2.40;;
16954;SDS011;8594;52.052;8.354;2023-05-16T06:00:28;13.60;;;2.40;;
16954;SDS011;8594;52.052;8.354;2023-05-16T06:02:55;19.70;;;3.20;;
16954;SDS011;8594;52.052;8.354;2023-05-16T06:05:21;16.57;;;2.50;;
16954;SDS011;8594;52.052;8.354;2023-05-16T06:07:48;12.73;;;2.50;;
16954;SDS011;8594;52.052;8.354;2023-05-16T06:10:15;13.30;;;2.77;;
16954;SDS011;8594;52.052;8.354;2023-05-16T06:12:42;13.97;;;2.93;;
16954;SDS011;8594;52.052;8.354;2023-05-16T06:15:10;11.77;;;2.73;;
16954;SDS011;8594;52.052;8.354;2023-05-16T06:17:37;13.03;;;2.67;;
16954;SDS011;8594;52.052;8.354;2023-05-16T06:20:04;16.87;;;3.00;;
16954;SDS011;8594;52.052;8.354;2023-05-16T06:22:33;11.80;;;2.50;;
16954;SDS011;8594;52.052;8.354;2023-05-16T06:25:00;11.53;;;3.17;;
16954;SDS011;8594;52.052;8.354;2023-05-16T06:27:26;13.97;;;3.03;;
16954;SDS011;8594;52.052;8.354;2023-05-16T06:29:53;13.73;;;2.07;;
16954;SDS011;8594;52.052;8.354;2023-05-16T06:32:22;7.97;;;2.00;;
16954;SDS011;8594;52.052;8.354;2023-05-16T06:34:50;11.77;;;2.40;;
16954;SDS011;8594;52.052;8.354;2023-05-16T06:37:17;10.33;;;2.23;;
16954;SDS011;8594;52.052;8.354;2023-05-16T06:39:44;17.03;;;2.67;;
16954;SDS011;8594;52.052;8.354;2023-05-16T06:42:11;13.90;;;2.40;;
16954;SDS011;8594;52.052;8.354;2023-05-16T06:44:38;8.10;;;2.30;;
16954;SDS011;8594;52.052;8.354;2023-05-16T06:47:06;8.60;;;2.53;;
16954;SDS011;8594;52.052;8.354;2023-05-16T06:49:34;12.33;;;2.23;;
16954;SDS011;8594;52.052;8.354;2023-05-16T06:52:01;16.43;;;2.60;;
16954;SDS011;8594;52.052;8.354;2023-05-16T06:54:28;12.93;;;2.63;;
16954;SDS011;8594;52.052;8.354;2023-05-16T06:56:56;13.83;;;3.00;;
16954;SDS011;8594;52.052;8.354;2023-05-16T06:59:23;13.30;;;2.43;;
16954;SDS011;8594;52.052;8.354;2023-05-16T07:01:50;13.10;;;2.67;;
16954;SDS011;8594;52.052;8.354;2023-05-16T07:04:16;13.07;;;2.70;;
16954;SDS011;8594;52.052;8.354;2023-05-16T07:06:44;16.20;;;2.83;;
16954;SDS011;8594;52.052;8.354;2023-05-16T07:09:11;16.90;;;2.50;;
16954;SDS011;8594;52.052;8.354;2023-05-16T07:11:38;16.37;;;2.40;;
16954;SDS011;8594;52.052;8.354;2023-05-16T07:14:05;10.77;;;2.33;;
16954;SDS011;8594;52.052;8.354;2023-05-16T07:16:31;8.13;;;2.17;;
16954;SDS011;8594;52.052;8.354;2023-05-16T07:18:58;8.77;;;2.17;;
16954;SDS011;8594;52.052;8.354;2023-05-16T07:21:25;12.23;;;2.97;;
16954;SDS011;8594;52.052;8.354;2023-05-16T07:23:54;10.00;;;2.07;;
16954;SDS011;8594;52.052;8.354;2023-05-16T07:26:21;9.73;;;2.30;;
16954;SDS011;8594;52.052;8.354;2023-05-16T07:28:48;12.90;;;2.20;;
16954;SDS011;8594;52.052;8.354;2023-05-16T07:31:15;9.17;;;2.13;;
16954;SDS011;8594;52.052;8.354;2023-05-16T07:33:42;12.70;;;2.20;;
16954;SDS011;8594;52.052;8.354;2023-05-16T07:36:10;13.40;;;2.33;;
16954;SDS011;8594;52.052;8.354;2023-05-16T07:38:38;11.57;;;2.67;;
16954;SDS011;8594;52.052;8.354;2023-05-16T07:41:06;10.53;;;2.37;;
16954;SDS011;8594;52.052;8.354;2023-05-16T07:43:32;14.37;;;2.50;;
16954;SDS011;8594;52.052;8.354;2023-05-16T07:45:59;9.37;;;2.10;;
16954;SDS011;8594;52.052;8.354;2023-05-16T07:48:26;10.30;;;1.83;;
16954;SDS011;8594;52.052;8.354;2023-05-16T07:50:53;9.67;;;2.17;;
16954;SDS011;8594;52.052;8.354;2023-05-16T07:53:20;10.13;;;2.07;;
16954;SDS011;8594;52.052;8.354;2023-05-16T07:55:47;15.60;;;2.27;;
16954;SDS011;8594;52.052;8.354;2023-05-16T07:58:15;10.80;;;1.80;;
16954;SDS011;8594;52.052;8.354;2023-05-16T08:00:42;8.60;;;2.00;;
16954;SDS011;8594;52.052;8.354;2023-05-16T08:03:09;9.40;;;2.10;;
16954;SDS011;8594;52.052;8.354;2023-05-16T08:05:36;10.57;;;1.70;;
16954;SDS011;8594;52.052;8.354;2023-05-16T08:08:04;10.03;;;1.90;;
16954;SDS011;8594;52.052;8.354;2023-05-16T08:10:31;10.77;;;1.80;;
16954;SDS011;8594;52.052;8.354;2023-05-16T08:12:57;12.03;;;2.07;;
16954;SDS011;8594;52.052;8.354;2023-05-16T08:15:26;14.10;;;2.67;;
16954;SDS011;8594;52.052;8.354;2023-05-16T08:17:54;9.87;;;1.93;;
16954;SDS011;8594;52.052;8.354;2023-05-16T08:20:22;9.27;;;2.13;;
16954;SDS011;8594;52.052;8.354;2023-05-16T08:22:49;12.80;;;2.73;;
16954;SDS011;8594;52.052;8.354;2023-05-16T08:25:16;10.20;;;2.53;;
16954;SDS011;8594;52.052;8.354;2023-05-16T08:27:43;10.47;;;1.93;;
16954;SDS011;8594;52.052;8.354;2023-05-16T08:30:11;7.37;;;1.93;;
16954;SDS011;8594;52.052;8.354;2023-05-16T08:32:40;11.73;;;2.60;;
16954;SDS011;8594;52.052;8.354;2023-05-16T08:35:07;7.70;;;1.80;;
16954;SDS011;8594;52.052;8.354;2023-05-16T08:37:35;11.27;;;1.80;;
16954;SDS011;8594;52.052;8.354;2023-05-16T08:40:03;9.47;;;1.90;;
16954;SDS011;8594;52.052;8.354;2023-05-16T08:42:32;8.13;;;1.73;;
16954;SDS011;8594;52.052;8.354;2023-05-16T08:45:00;9.63;;;1.70;;
16954;SDS011;8594;52.052;8.354;2023-05-16T08:47:28;5.47;;;2.00;;
16954;SDS011;8594;52.052;8.354;2023-05-16T08:49:59;9.30;;;2.00;;
16954;SDS011;8594;52.052;8.354;2023-05-16T08:52:30;7.90;;;2.13;;
16954;SDS011;8594;52.052;8.354;2023-05-16T08:54:59;7.77;;;1.73;;
16954;SDS011;8594;52.052;8.354;2023-05-16T08:57:30;11.30;;;1.83;;
16954;SDS011;8594;52.052;8.354;2023-05-16T08:59:58;4.93;;;1.30;;
16954;SDS011;8594;52.052;8.354;2023-05-16T09:02:26;8.40;;;1.63;;
16954;SDS011;8594;52.052;8.354;2023-05-16T09:04:53;7.57;;;1.90;;
16954;SDS011;8594;52.052;8.354;2023-05-16T09:07:23;14.17;;;2.17;;
16954;SDS011;8594;52.052;8.354;2023-05-16T09:09:50;7.83;;;1.80;;
16954;SDS011;8594;52.052;8.354;2023-05-16T09:12:18;12.10;;;1.87;;
16954;SDS011;8594;52.052;8.354;2023-05-16T09:14:46;6.67;;;1.90;;
16954;SDS011;8594;52.052;8.354;2023-05-16T09:17:12;6.43;;;1.70;;
16954;SDS011;8594;52.052;8.354;2023-05-16T09:19:40;9.00;;;1.30;;
16954;SDS011;8594;52.052;8.354;2023-05-16T09:22:10;6.77;;;1.70;;
16954;SDS011;8594;52.052;8.354;2023-05-16T09:24:40;5.57;;;1.53;;
16954;SDS011;8594;52.052;8.354;2023-05-16T09:27:08;7.27;;;1.40;;
16954;SDS011;8594;52.052;8.354;2023-05-16T09:29:37;9.73;;;1.50;;
16954;SDS011;8594;52.052;8.354;2023-05-16T09:32:09;7.43;;;1.40;;
16954;SDS011;8594;52.052;8.354;2023-05-16T09:34:42;8.03;;;1.73;;
16954;SDS011;8594;52.052;8.354;2023-05-16T09:37:09;4.83;;;1.60;;
16954;SDS011;8594;52.052;8.354;2023-05-16T09:39:38;6.57;;;1.70;;
16954;SDS011;8594;52.052;8.354;2023-05-16T09:42:11;9.53;;;1.70;;
16954;SDS011;8594;52.052;8.354;2023-05-16T09:44:39;6.63;;;1.47;;
16954;SDS011;8594;52.052;8.354;2023-05-16T09:47:07;4.77;;;1.30;;
16954;SDS011;8594;52.052;8.354;2023-05-16T09:49:35;8.10;;;1.50;;
16954;SDS011;8594;52.052;8.354;2023-05-16T09:52:03;5.87;;;1.47;;
16954;SDS011;8594;52.052;8.354;2023-05-16T09:54:30;7.53;;;1.50;;
16954;SDS011;8594;52.052;8.354;2023-05-16T09:57:00;7.77;;;1.67;;
16954;SDS011;8594;52.052;8.354;2023-05-16T09:59:28;6.93;;;1.40;;
16954;SDS011;8594;52.052;8.354;2023-05-16T10:01:56;7.80;;;1.60;;
16954;SDS011;8594;52.052;8.354;2023-05-16T10:04:24;7.23;;;1.20;;
16954;SDS011;8594;52.052;8.354;2023-05-16T10:06:51;7.07;;;1.53;;
16954;SDS011;8594;52.052;8.354;2023-05-16T10:09:21;5.10;;;1.50;;
16954;SDS011;8594;52.052;8.354;2023-05-16T10:11:50;10.17;;;1.57;;
16954;SDS011;8594;52.052;8.354;2023-05-16T10:14:19;9.67;;;1.70;;
16954;SDS011;8594;52.052;8.354;2023-05-16T10:16:47;7.40;;;1.60;;
16954;SDS011;8594;52.052;8.354;2023-05-16T10:19:16;8.00;;;1.70;;
16954;SDS011;8594;52.052;8.354;2023-05-16T10:21:48;7.97;;;2.03;;
16954;SDS011;8594;52.052;8.354;2023-05-16T10:24:24;6.50;;;1.50;;
16954;SDS011;8594;52.052;8.354;2023-05-16T10:26:59;5.17;;;1.77;;
16954;SDS011;8594;52.052;8.354;2023-05-16T10:29:28;5.13;;;1.57;;
16954;SDS011;8594;52.052;8.354;2023-05-16T10:31:57;4.53;;;1.40;;
16954;SDS011;8594;52.052;8.354;2023-05-16T10:34:25;5.17;;;1.30;;
16954;SDS011;8594;52.052;8.354;2023-05-16T10:36:52;6.87;;;1.57;;
16954;SDS011;8594;52.052;8.354;2023-05-16T10:39:19;7.50;;;1.50;;
16954;SDS011;8594;52.052;8.354;2023-05-16T10:41:47;5.60;;;1.67;;
16954;SDS011;8594;52.052;8.354;2023-05-16T10:44:15;6.93;;;1.20;;
16954;SDS011;8594;52.052;8.354;2023-05-16T10:46:43;8.77;;;1.47;;
16954;SDS011;8594;52.052;8.354;2023-05-16T10:49:18;6.40;;;1.43;;
16954;SDS011;8594;52.052;8.354;2023-05-16T10:51:48;9.13;;;1.90;;
16954;SDS011;8594;52.052;8.354;2023-05-16T10:54:36;9.37;;;2.13;;
16954;SDS011;8594;52.052;8.354;2023-05-16T10:57:05;10.03;;;1.50;;
16954;SDS011;8594;52.052;8.354;2023-05-16T10:59:39;7.17;;;1.57;;
16954;SDS011;8594;52.052;8.354;2023-05-16T11:02:23;8.83;;;1.50;;
16954;SDS011;8594;52.052;8.354;2023-05-16T11:04:53;10.33;;;1.40;;
16954;SDS011;8594;52.052;8.354;2023-05-16T11:07:23;6.50;;;1.80;;
16954;SDS011;8594;52.052;8.354;2023-05-16T11:10:02;6.07;;;1.50;;
16954;SDS011;8594;52.052;8.354;2023-05-16T11:12:36;7.23;;;1.57;;
16954;SDS011;8594;52.052;8.354;2023-05-16T11:15:18;6.73;;;1.60;;
16954;SDS011;8594;52.052;8.354;2023-05-16T11:17:50;8.53;;;1.57;;
16954;SDS011;8594;52.052;8.354;2023-05-16T11:20:30;10.60;;;1.47;;
16954;SDS011;8594;52.052;8.354;2023-05-16T11:25:47;6.20;;;1.57;;
16954;SDS011;8594;52.052;8.354;2023-05-16T11:28:18;7.87;;;1.37;;
16954;SDS011;8594;52.052;8.354;2023-05-16T11:30:47;7.70;;;1.40;;
16954;SDS011;8594;52.052;8.354;2023-05-16T11:33:17;10.90;;;1.60;;
16954;SDS011;8594;52.052;8.354;2023-05-16T11:35:58;7.63;;;1.40;;
16954;SDS011;8594;52.052;8.354;2023-05-16T11:38:28;4.57;;;1.13;;
16954;SDS011;8594;52.052;8.354;2023-05-16T11:41:00;8.03;;;1.33;;
16954;SDS011;8594;52.052;8.354;2023-05-16T11:43:39;9.93;;;1.67;;
16954;SDS011;8594;52.052;8.354;2023-05-16T11:46:09;10.43;;;1.87;;
16954;SDS011;8594;52.052;8.354;2023-05-16T11:48:38;8.97;;;1.37;;
16954;SDS011;8594;52.052;8.354;2023-05-16T11:51:06;8.63;;;1.30;;
16954;SDS011;8594;52.052;8.354;2023-05-16T11:53:34;3.67;;;1.37;;
16954;SDS011;8594;52.052;8.354;2023-05-16T11:56:02;7.87;;;1.50;;
16954;SDS011;8594;52.052;8.354;2023-05-16T11:58:29;5.73;;;1.60;;
16954;SDS011;8594;52.052;8.354;2023-05-16T12:00:57;6.10;;;1.40;;
16954;SDS011;8594;52.052;8.354;2023-05-16T12:03:24;8.33;;;1.40;;
16954;SDS011;8594;52.052;8.354;2023-05-16T12:05:53;10.67;;;1.60;;
16954;SDS011;8594;52.052;8.354;2023-05-16T12:08:21;7.40;;;1.60;;
16954;SDS011;8594;52.052;8.354;2023-05-16T12:10:49;6.20;;;1.40;;
16954;SDS011;8594;52.052;8.354;2023-05-16T12:13:18;5.60;;;1.30;;
16954;SDS011;8594;52.052;8.354;2023-05-16T12:15:47;5.50;;;1.40;;
16954;SDS011;8594;52.052;8.354;2023-05-16T12:18:16;9.00;;;1.50;;
16954;SDS011;8594;52.052;8.354;2023-05-16T12:20:45;9.80;;;1.37;;
16954;SDS011;8594;52.052;8.354;2023-05-16T12:23:13;8.20;;;1.83;;
16954;SDS011;8594;52.052;8.354;2023-05-16T12:25:43;5.40;;;1.80;;
16954;SDS011;8594;52.052;8.354;2023-05-16T12:28:13;4.27;;;1.20;;
16954;SDS011;8594;52.052;8.354;2023-05-16T12:30:41;4.27;;;1.30;;
16954;SDS011;8594;52.052;8.354;2023-05-16T12:33:13;7.80;;;1.57;;
16954;SDS011;8594;52.052;8.354;2023-05-16T12:35:42;6.50;;;1.37;;
16954;SDS011;8594;52.052;8.354;2023-05-16T12:38:11;8.60;;;1.63;;
16954;SDS011;8594;52.052;8.354;2023-05-16T12:40:41;12.10;;;1.50;;
16954;SDS011;8594;52.052;8.354;2023-05-16T12:43:12;6.20;;;1.50;;
16954;SDS011;8594;52.052;8.354;2023-05-16T12:45:40;7.87;;;1.33;;
16954;SDS011;8594;52.052;8.354;2023-05-16T12:48:11;2.60;;;1.30;;
16954;SDS011;8594;52.052;8.354;2023-05-16T12:50:39;5.57;;;1.53;;
16954;SDS011;8594;52.052;8.354;2023-05-16T12:53:09;4.10;;;1.40;;
16954;SDS011;8594;52.052;8.354;2023-05-16T12:55:48;7.50;;;1.30;;
16954;SDS011;8594;52.052;8.354;2023-05-16T12:58:37;4.33;;;1.20;;
16954;SDS011;8594;52.052;8.354;2023-05-16T13:01:21;6.10;;;1.33;;
16954;SDS011;8594;52.052;8.354;2023-05-16T13:04:09;4.87;;;1.40;;
16954;SDS011;8594;52.052;8.354;2023-05-16T13:06:51;7.90;;;1.40;;
16954;SDS011;8594;52.052;8.354;2023-05-16T13:09:29;6.17;;;1.60;;
16954;SDS011;8594;52.052;8.354;2023-05-16T13:12:05;4.53;;;1.10;;
16954;SDS011;8594;52.052;8.354;2023-05-16T13:14:46;8.57;;;1.43;;
16954;SDS011;8594;52.052;8.354;2023-05-16T13:17:30;3.33;;;1.33;;
16954;SDS011;8594;52.052;8.354;2023-05-16T13:20:10;4.03;;;1.50;;
16954;SDS011;8594;52.052;8.354;2023-05-16T13:22:42;6.60;;;1.43;;
16954;SDS011;8594;52.052;8.354;2023-05-16T13:25:16;3.17;;;1.40;;
16954;SDS011;8594;52.052;8.354;2023-05-16T13:30:41;4.90;;;1.40;;
16954;SDS011;8594;52.052;8.354;2023-05-16T13:33:25;4.90;;;1.40;;
16954;SDS011;8594;52.052;8.354;2023-05-16T13:35:53;6.90;;;1.70;;
16954;SDS011;8594;52.052;8.354;2023-05-16T13:38:22;2.97;;;1.13;;
16954;SDS011;8594;52.052;8.354;2023-05-16T13:40:51;5.27;;;1.40;;
16954;SDS011;8594;52.052;8.354;2023-05-16T13:43:24;4.93;;;1.20;;
16954;SDS011;8594;52.052;8.354;2023-05-16T13:45:52;7.63;;;1.43;;
16954;SDS011;8594;52.052;8.354;2023-05-16T13:48:22;5.37;;;1.33;;
16954;SDS011;8594;52.052;8.354;2023-05-16T13:50:53;4.43;;;1.43;;
16954;SDS011;8594;52.052;8.354;2023-05-16T13:53:41;6.80;;;1.50;;
16954;SDS011;8594;52.052;8.354;2023-05-16T13:56:10;6.07;;;1.30;;
16954;SDS011;8594;52.052;8.354;2023-05-16T13:58:39;5.23;;;1.40;;
16954;SDS011;8594;52.052;8.354;2023-05-16T14:01:06;2.80;;;1.10;;
16954;SDS011;8594;52.052;8.354;2023-05-16T14:03:32;5.07;;;1.40;;
16954;SDS011;8594;52.052;8.354;2023-05-16T14:06:00;6.80;;;1.33;;
16954;SDS011;8594;52.052;8.354;2023-05-16T14:08:28;4.13;;;1.47;;
16954;SDS011;8594;52.052;8.354;2023-05-16T14:10:55;6.30;;;1.30;;
16954;SDS011;8594;52.052;8.354;2023-05-16T14:13:22;4.77;;;1.40;;
16954;SDS011;8594;52.052;8.354;2023-05-16T14:15:50;4.87;;;1.03;;
16954;SDS011;8594;52.052;8.354;2023-05-16T14:18:17;3.80;;;1.40;;
16954;SDS011;8594;52.052;8.354;2023-05-16T14:20:44;7.77;;;1.33;;
16954;SDS011;8594;52.052;8.354;2023-05-16T14:23:10;11.90;;;2.37;;
16954;SDS011;8594;52.052;8.354;2023-05-16T14:25:37;4.90;;;1.60;;
16954;SDS011;8594;52.052;8.354;2023-05-16T14:28:04;9.47;;;1.83;;
16954;SDS011;8594;52.052;8.354;2023-05-16T14:30:31;8.23;;;1.93;;
16954;SDS011;8594;52.052;8.354;2023-05-16T14:32:59;5.17;;;1.33;;
16954;SDS011;8594;52.052;8.354;2023-05-16T14:35:27;5.70;;;1.40;;
16954;SDS011;8594;52.052;8.354;2023-05-16T14:37:55;9.73;;;1.47;;
16954;SDS011;8594;52.052;8.354;2023-05-16T14:40:21;7.20;;;1.83;;
16954;SDS011;8594;52.052;8.354;2023-05-16T14:42:48;6.50;;;1.70;;
16954;SDS011;8594;52.052;8.354;2023-05-16T14:45:15;6.70;;;1.77;;
16954;SDS011;8594;52.052;8.354;2023-05-16T14:47:42;6.00;;;1.80;;
16954;SDS011;8594;52.052;8.354;2023-05-16T14:50:11;13.70;;;4.73;;
16954;SDS011;8594;52.052;8.354;2023-05-16T14:52:38;14.03;;;2.80;;
16954;SDS011;8594;52.052;8.354;2023-05-16T14:55:05;9.30;;;2.37;;
16954;SDS011;8594;52.052;8.354;2023-05-16T14:57:32;3.87;;;1.50;;
16954;SDS011;8594;52.052;8.354;2023-05-16T15:00:00;6.27;;;1.77;;
16954;SDS011;8594;52.052;8.354;2023-05-16T15:02:27;11.00;;;2.80;;
16954;SDS011;8594;52.052;8.354;2023-05-16T15:04:54;9.30;;;2.40;;
16954;SDS011;8594;52.052;8.354;2023-05-16T15:07:23;8.13;;;1.90;;
16954;SDS011;8594;52.052;8.354;2023-05-16T15:09:50;6.43;;;1.60;;
16954;SDS011;8594;52.052;8.354;2023-05-16T15:12:17;4.70;;;1.50;;